Hauptseite
METAR-TAF:

METAR-TAF

Flughäfen :

Pian Rosa, Italien

Breite: 45-56N, Länge: 007-42E, Höhe: 3480 m

Beobachtung

Neuester Wetterbericht von vor 31 Minuten, um 04:55 UTC
Wind 15 kt aus Ost/Nordost
Temperatur -14°C
Luftfeuchtigkeit 85%
Luftdruck 998 hPa
Sichtweite: 0800 m
Gefrierender Nebel

METAR: LIMH 170455Z 06015KT 0800 FZFG VV/// M14/M16 Q0998 RMK MON INVIS VAL INVIS VIS MIN 0800

Zeit: 06:26 (05:26 UTC)


TAF: fehlend

Wetterbeobachtungen und Prognosen von mehr als 4000 Flughäfen (METAR und TAF Bericht).

Die verfügbaren Stationen werden durch gelbe und rote Markierungen auf der Karte dargestellt.

Führen Sie die Maus auf sie, um den Namen der Station zu sehen.

Darauf klicken, um die Beobachtung von Wetterbeobachtungen und Prognosen zu sehen.

Um die Karte zu ändern : klicken Sie auf den grünen Tasten mit einem schwarzen Kreuz Zum Vergrößern, auf den grünen Button mit einem Gedankenstrich zu verkleinern, oder auf die grünen Pfeile für benachbarte Karten.


METAR-TAF: